sensor_id;sensor_type;location;lat;lon;timestamp;P1;durP1;ratioP1;P2;durP2;ratioP2
54416;SDS011;40326;51.220;7.250;2023-02-01T00:02:01;37.70;;;16.80;;
54416;SDS011;40326;51.220;7.250;2023-02-01T00:04:27;35.78;;;15.40;;
54416;SDS011;40326;51.220;7.250;2023-02-01T00:06:52;27.77;;;15.25;;
54416;SDS011;40326;51.220;7.250;2023-02-01T00:09:17;23.35;;;13.70;;
54416;SDS011;40326;51.220;7.250;2023-02-01T00:11:43;25.83;;;13.70;;
54416;SDS011;40326;51.220;7.250;2023-02-01T00:14:08;22.10;;;12.80;;
54416;SDS011;40326;51.220;7.250;2023-02-01T00:16:34;25.85;;;13.38;;
54416;SDS011;40326;51.220;7.250;2023-02-01T00:19:01;25.95;;;12.23;;
54416;SDS011;40326;51.220;7.250;2023-02-01T00:21:26;23.77;;;11.75;;
54416;SDS011;40326;51.220;7.250;2023-02-01T00:23:52;21.92;;;11.32;;
54416;SDS011;40326;51.220;7.250;2023-02-01T00:26:18;31.77;;;11.63;;
54416;SDS011;40326;51.220;7.250;2023-02-01T00:28:44;21.65;;;9.90;;
54416;SDS011;40326;51.220;7.250;2023-02-01T00:31:09;24.80;;;11.20;;
54416;SDS011;40326;51.220;7.250;2023-02-01T00:33:35;20.88;;;9.95;;
54416;SDS011;40326;51.220;7.250;2023-02-01T00:36:01;19.87;;;10.23;;
54416;SDS011;40326;51.220;7.250;2023-02-01T00:38:27;22.90;;;11.30;;
54416;SDS011;40326;51.220;7.250;2023-02-01T00:40:53;20.48;;;10.30;;
54416;SDS011;40326;51.220;7.250;2023-02-01T00:43:18;23.90;;;10.60;;
54416;SDS011;40326;51.220;7.250;2023-02-01T00:45:45;22.75;;;12.10;;
54416;SDS011;40326;51.220;7.250;2023-02-01T00:48:10;24.73;;;13.88;;
54416;SDS011;40326;51.220;7.250;2023-02-01T00:50:35;25.77;;;13.65;;
54416;SDS011;40326;51.220;7.250;2023-02-01T00:53:00;28.88;;;16.60;;
54416;SDS011;40326;51.220;7.250;2023-02-01T00:55:25;26.88;;;17.42;;
54416;SDS011;40326;51.220;7.250;2023-02-01T00:57:50;30.92;;;16.50;;
54416;SDS011;40326;51.220;7.250;2023-02-01T01:00:16;30.73;;;16.45;;
54416;SDS011;40326;51.220;7.250;2023-02-01T01:02:41;23.73;;;14.95;;
54416;SDS011;40326;51.220;7.250;2023-02-01T01:05:06;28.48;;;15.45;;
54416;SDS011;40326;51.220;7.250;2023-02-01T01:07:32;37.20;;;19.33;;
54416;SDS011;40326;51.220;7.250;2023-02-01T01:09:57;29.45;;;17.92;;
54416;SDS011;40326;51.220;7.250;2023-02-01T01:12:22;33.67;;;18.35;;
54416;SDS011;40326;51.220;7.250;2023-02-01T01:14:47;31.90;;;19.00;;
54416;SDS011;40326;51.220;7.250;2023-02-01T01:17:13;32.30;;;19.73;;
54416;SDS011;40326;51.220;7.250;2023-02-01T01:19:38;30.35;;;19.55;;
54416;SDS011;40326;51.220;7.250;2023-02-01T01:22:03;31.13;;;18.58;;
54416;SDS011;40326;51.220;7.250;2023-02-01T01:24:28;32.05;;;19.80;;
54416;SDS011;40326;51.220;7.250;2023-02-01T01:26:53;38.35;;;18.23;;
54416;SDS011;40326;51.220;7.250;2023-02-01T01:29:18;31.88;;;16.95;;
54416;SDS011;40326;51.220;7.250;2023-02-01T01:31:44;29.27;;;15.50;;
54416;SDS011;40326;51.220;7.250;2023-02-01T01:34:09;28.98;;;14.43;;
54416;SDS011;40326;51.220;7.250;2023-02-01T01:36:34;29.38;;;14.77;;
54416;SDS011;40326;51.220;7.250;2023-02-01T01:38:59;28.05;;;14.10;;
54416;SDS011;40326;51.220;7.250;2023-02-01T01:41:25;27.45;;;14.75;;
54416;SDS011;40326;51.220;7.250;2023-02-01T01:46:19;26.88;;;13.15;;
54416;SDS011;40326;51.220;7.250;2023-02-01T01:48:45;24.65;;;11.63;;
54416;SDS011;40326;51.220;7.250;2023-02-01T01:51:11;18.75;;;9.93;;
54416;SDS011;40326;51.220;7.250;2023-02-01T01:53:38;22.35;;;10.07;;
54416;SDS011;40326;51.220;7.250;2023-02-01T01:56:06;22.67;;;11.75;;
54416;SDS011;40326;51.220;7.250;2023-02-01T01:58:31;20.55;;;9.43;;
54416;SDS011;40326;51.220;7.250;2023-02-01T02:00:58;25.75;;;9.05;;
54416;SDS011;40326;51.220;7.250;2023-02-01T02:03:26;19.80;;;7.75;;
54416;SDS011;40326;51.220;7.250;2023-02-01T02:05:53;19.75;;;8.18;;
54416;SDS011;40326;51.220;7.250;2023-02-01T02:08:19;18.00;;;7.75;;
54416;SDS011;40326;51.220;7.250;2023-02-01T02:10:45;18.13;;;6.78;;
54416;SDS011;40326;51.220;7.250;2023-02-01T02:13:26;18.02;;;7.55;;
54416;SDS011;40326;51.220;7.250;2023-02-01T02:44:55;19.50;;;5.32;;
54416;SDS011;40326;51.220;7.250;2023-02-01T02:47:44;18.80;;;4.43;;
54416;SDS011;40326;51.220;7.250;2023-02-01T02:53:02;20.52;;;5.35;;
54416;SDS011;40326;51.220;7.250;2023-02-01T02:55:47;14.95;;;4.63;;
54416;SDS011;40326;51.220;7.250;2023-02-01T02:58:13;16.38;;;4.80;;
54416;SDS011;40326;51.220;7.250;2023-02-01T03:00:57;18.10;;;4.40;;
54416;SDS011;40326;51.220;7.250;2023-02-01T03:06:25;16.37;;;4.47;;
54416;SDS011;40326;51.220;7.250;2023-02-01T03:08:50;17.23;;;3.85;;
54416;SDS011;40326;51.220;7.250;2023-02-01T03:11:19;18.80;;;5.25;;
54416;SDS011;40326;51.220;7.250;2023-02-01T03:16:15;13.95;;;4.13;;
54416;SDS011;40326;51.220;7.250;2023-02-01T03:24:01;23.13;;;4.70;;
54416;SDS011;40326;51.220;7.250;2023-02-01T03:26:54;16.25;;;4.43;;
54416;SDS011;40326;51.220;7.250;2023-02-01T03:32:30;15.90;;;4.30;;
54416;SDS011;40326;51.220;7.250;2023-02-01T03:35:18;13.95;;;4.57;;
54416;SDS011;40326;51.220;7.250;2023-02-01T03:37:49;19.20;;;4.60;;
54416;SDS011;40326;51.220;7.250;2023-02-01T03:40:21;15.15;;;4.10;;
54416;SDS011;40326;51.220;7.250;2023-02-01T03:46:28;17.08;;;3.97;;
54416;SDS011;40326;51.220;7.250;2023-02-01T03:52:06;18.35;;;4.72;;
54416;SDS011;40326;51.220;7.250;2023-02-01T03:54:35;17.48;;;4.70;;
54416;SDS011;40326;51.220;7.250;2023-02-01T03:57:23;18.33;;;4.35;;
54416;SDS011;40326;51.220;7.250;2023-02-01T03:59:50;15.65;;;4.63;;
54416;SDS011;40326;51.220;7.250;2023-02-01T04:02:15;19.67;;;5.35;;
54416;SDS011;40326;51.220;7.250;2023-02-01T04:04:40;14.88;;;4.05;;
54416;SDS011;40326;51.220;7.250;2023-02-01T04:07:06;13.85;;;3.78;;
54416;SDS011;40326;51.220;7.250;2023-02-01T04:09:31;15.52;;;4.60;;
54416;SDS011;40326;51.220;7.250;2023-02-01T04:11:56;23.08;;;5.28;;
54416;SDS011;40326;51.220;7.250;2023-02-01T04:14:21;15.77;;;5.10;;
54416;SDS011;40326;51.220;7.250;2023-02-01T04:16:46;20.90;;;5.93;;
54416;SDS011;40326;51.220;7.250;2023-02-01T04:19:12;16.73;;;5.00;;
54416;SDS011;40326;51.220;7.250;2023-02-01T04:21:37;16.20;;;4.38;;
54416;SDS011;40326;51.220;7.250;2023-02-01T04:24:02;17.17;;;4.38;;
54416;SDS011;40326;51.220;7.250;2023-02-01T04:26:27;21.67;;;4.57;;
54416;SDS011;40326;51.220;7.250;2023-02-01T04:28:53;19.60;;;4.67;;
54416;SDS011;40326;51.220;7.250;2023-02-01T04:31:18;12.00;;;4.22;;
54416;SDS011;40326;51.220;7.250;2023-02-01T04:33:50;16.25;;;4.80;;
54416;SDS011;40326;51.220;7.250;2023-02-01T04:36:15;19.75;;;4.75;;
54416;SDS011;40326;51.220;7.250;2023-02-01T04:38:44;19.13;;;5.82;;
54416;SDS011;40326;51.220;7.250;2023-02-01T04:41:09;18.17;;;3.92;;
54416;SDS011;40326;51.220;7.250;2023-02-01T04:43:34;18.55;;;5.68;;
54416;SDS011;40326;51.220;7.250;2023-02-01T04:46:00;17.38;;;4.50;;
54416;SDS011;40326;51.220;7.250;2023-02-01T04:48:25;16.15;;;5.03;;
54416;SDS011;40326;51.220;7.250;2023-02-01T04:50:50;15.23;;;4.03;;
54416;SDS011;40326;51.220;7.250;2023-02-01T04:53:16;17.67;;;3.97;;
54416;SDS011;40326;51.220;7.250;2023-02-01T04:55:41;17.15;;;4.22;;
54416;SDS011;40326;51.220;7.250;2023-02-01T04:58:07;23.20;;;5.65;;
54416;SDS011;40326;51.220;7.250;2023-02-01T05:00:32;20.02;;;4.30;;
54416;SDS011;40326;51.220;7.250;2023-02-01T05:02:57;17.73;;;4.93;;
54416;SDS011;40326;51.220;7.250;2023-02-01T05:05:22;17.58;;;4.45;;
54416;SDS011;40326;51.220;7.250;2023-02-01T05:07:47;14.90;;;4.65;;
54416;SDS011;40326;51.220;7.250;2023-02-01T05:10:13;25.80;;;5.85;;
54416;SDS011;40326;51.220;7.250;2023-02-01T05:12:38;12.75;;;4.00;;
54416;SDS011;40326;51.220;7.250;2023-02-01T05:15:21;17.58;;;5.03;;
54416;SDS011;40326;51.220;7.250;2023-02-01T05:17:47;17.35;;;4.28;;
54416;SDS011;40326;51.220;7.250;2023-02-01T05:20:12;19.27;;;5.65;;
54416;SDS011;40326;51.220;7.250;2023-02-01T05:22:37;19.45;;;5.13;;
54416;SDS011;40326;51.220;7.250;2023-02-01T05:25:02;24.08;;;5.32;;
54416;SDS011;40326;51.220;7.250;2023-02-01T05:27:29;17.52;;;5.03;;
54416;SDS011;40326;51.220;7.250;2023-02-01T05:29:54;16.92;;;5.22;;
54416;SDS011;40326;51.220;7.250;2023-02-01T05:32:19;16.60;;;5.57;;
54416;SDS011;40326;51.220;7.250;2023-02-01T05:34:44;19.70;;;5.85;;
54416;SDS011;40326;51.220;7.250;2023-02-01T05:37:09;18.05;;;5.57;;
54416;SDS011;40326;51.220;7.250;2023-02-01T05:39:35;18.30;;;5.07;;
54416;SDS011;40326;51.220;7.250;2023-02-01T05:42:00;13.95;;;4.82;;
54416;SDS011;40326;51.220;7.250;2023-02-01T05:44:25;23.23;;;5.80;;
54416;SDS011;40326;51.220;7.250;2023-02-01T05:46:50;17.75;;;6.43;;
54416;SDS011;40326;51.220;7.250;2023-02-01T05:49:17;14.73;;;4.85;;
54416;SDS011;40326;51.220;7.250;2023-02-01T05:51:42;20.98;;;5.43;;
54416;SDS011;40326;51.220;7.250;2023-02-01T05:54:08;14.77;;;4.50;;
54416;SDS011;40326;51.220;7.250;2023-02-01T05:56:33;19.80;;;4.97;;
54416;SDS011;40326;51.220;7.250;2023-02-01T05:58:58;19.75;;;5.13;;
54416;SDS011;40326;51.220;7.250;2023-02-01T06:01:23;15.18;;;5.07;;
54416;SDS011;40326;51.220;7.250;2023-02-01T06:03:48;17.35;;;6.68;;
54416;SDS011;40326;51.220;7.250;2023-02-01T06:06:14;18.13;;;5.40;;
54416;SDS011;40326;51.220;7.250;2023-02-01T06:08:39;24.27;;;5.65;;
54416;SDS011;40326;51.220;7.250;2023-02-01T06:11:07;19.58;;;5.95;;
54416;SDS011;40326;51.220;7.250;2023-02-01T06:13:32;21.85;;;5.18;;
54416;SDS011;40326;51.220;7.250;2023-02-01T06:15:57;20.25;;;5.97;;
54416;SDS011;40326;51.220;7.250;2023-02-01T06:18:23;21.27;;;5.75;;
54416;SDS011;40326;51.220;7.250;2023-02-01T06:20:54;24.33;;;6.43;;
54416;SDS011;40326;51.220;7.250;2023-02-01T06:23:20;25.25;;;5.40;;
54416;SDS011;40326;51.220;7.250;2023-02-01T06:25:48;22.50;;;6.05;;
54416;SDS011;40326;51.220;7.250;2023-02-01T06:28:13;19.58;;;5.88;;
54416;SDS011;40326;51.220;7.250;2023-02-01T06:30:39;15.73;;;5.15;;
54416;SDS011;40326;51.220;7.250;2023-02-01T06:33:05;20.65;;;5.85;;
54416;SDS011;40326;51.220;7.250;2023-02-01T06:35:31;16.17;;;4.63;;
54416;SDS011;40326;51.220;7.250;2023-02-01T06:37:56;21.77;;;4.88;;
54416;SDS011;40326;51.220;7.250;2023-02-01T06:40:22;17.63;;;5.30;;
54416;SDS011;40326;51.220;7.250;2023-02-01T06:42:48;25.27;;;6.00;;
54416;SDS011;40326;51.220;7.250;2023-02-01T06:45:13;17.13;;;4.78;;
54416;SDS011;40326;51.220;7.250;2023-02-01T06:47:38;22.38;;;5.55;;
54416;SDS011;40326;51.220;7.250;2023-02-01T06:50:04;19.52;;;5.30;;
54416;SDS011;40326;51.220;7.250;2023-02-01T06:52:30;21.83;;;5.60;;
54416;SDS011;40326;51.220;7.250;2023-02-01T06:54:55;22.67;;;6.68;;
54416;SDS011;40326;51.220;7.250;2023-02-01T06:57:20;17.80;;;5.13;;
54416;SDS011;40326;51.220;7.250;2023-02-01T06:59:46;19.63;;;5.45;;
54416;SDS011;40326;51.220;7.250;2023-02-01T07:02:11;16.13;;;5.45;;
54416;SDS011;40326;51.220;7.250;2023-02-01T07:04:36;21.35;;;5.88;;
54416;SDS011;40326;51.220;7.250;2023-02-01T07:07:02;22.63;;;8.10;;
54416;SDS011;40326;51.220;7.250;2023-02-01T07:09:27;24.55;;;7.68;;
54416;SDS011;40326;51.220;7.250;2023-02-01T07:11:52;28.92;;;10.98;;
54416;SDS011;40326;51.220;7.250;2023-02-01T07:14:17;20.27;;;7.45;;
54416;SDS011;40326;51.220;7.250;2023-02-01T07:16:42;20.67;;;9.25;;
54416;SDS011;40326;51.220;7.250;2023-02-01T07:19:07;26.70;;;8.63;;
54416;SDS011;40326;51.220;7.250;2023-02-01T07:21:33;30.67;;;9.40;;
54416;SDS011;40326;51.220;7.250;2023-02-01T07:23:58;28.25;;;8.63;;
54416;SDS011;40326;51.220;7.250;2023-02-01T07:26:23;27.98;;;7.78;;
54416;SDS011;40326;51.220;7.250;2023-02-01T07:28:48;17.83;;;5.85;;
54416;SDS011;40326;51.220;7.250;2023-02-01T07:31:14;16.95;;;6.03;;
54416;SDS011;40326;51.220;7.250;2023-02-01T07:33:40;18.98;;;6.28;;
54416;SDS011;40326;51.220;7.250;2023-02-01T07:36:06;25.08;;;6.38;;
54416;SDS011;40326;51.220;7.250;2023-02-01T07:38:31;20.30;;;5.82;;
54416;SDS011;40326;51.220;7.250;2023-02-01T07:40:58;23.75;;;6.93;;
54416;SDS011;40326;51.220;7.250;2023-02-01T07:43:23;23.08;;;6.28;;
54416;SDS011;40326;51.220;7.250;2023-02-01T07:45:51;23.52;;;5.47;;
54416;SDS011;40326;51.220;7.250;2023-02-01T07:48:17;23.65;;;7.25;;
54416;SDS011;40326;51.220;7.250;2023-02-01T07:50:43;21.35;;;6.18;;
54416;SDS011;40326;51.220;7.250;2023-02-01T07:53:08;16.20;;;5.75;;
54416;SDS011;40326;51.220;7.250;2023-02-01T07:55:33;15.93;;;5.53;;
54416;SDS011;40326;51.220;7.250;2023-02-01T07:57:59;23.25;;;5.18;;
54416;SDS011;40326;51.220;7.250;2023-02-01T08:00:25;24.05;;;6.45;;
54416;SDS011;40326;51.220;7.250;2023-02-01T08:03:10;19.17;;;5.13;;
54416;SDS011;40326;51.220;7.250;2023-02-01T08:05:35;19.23;;;6.68;;
54416;SDS011;40326;51.220;7.250;2023-02-01T08:08:01;16.70;;;5.28;;
54416;SDS011;40326;51.220;7.250;2023-02-01T08:10:27;20.25;;;5.30;;
54416;SDS011;40326;51.220;7.250;2023-02-01T08:12:56;23.40;;;4.85;;
54416;SDS011;40326;51.220;7.250;2023-02-01T08:15:22;23.40;;;6.10;;
54416;SDS011;40326;51.220;7.250;2023-02-01T08:17:48;18.88;;;5.85;;
54416;SDS011;40326;51.220;7.250;2023-02-01T08:20:13;20.52;;;6.00;;
54416;SDS011;40326;51.220;7.250;2023-02-01T08:22:38;16.73;;;5.53;;
54416;SDS011;40326;51.220;7.250;2023-02-01T08:25:04;22.30;;;5.40;;
54416;SDS011;40326;51.220;7.250;2023-02-01T08:27:29;19.05;;;5.82;;
54416;SDS011;40326;51.220;7.250;2023-02-01T08:29:57;19.23;;;5.22;;
54416;SDS011;40326;51.220;7.250;2023-02-01T08:32:22;21.38;;;6.13;;
54416;SDS011;40326;51.220;7.250;2023-02-01T08:34:47;16.88;;;6.25;;
54416;SDS011;40326;51.220;7.250;2023-02-01T08:37:12;24.60;;;6.47;;
54416;SDS011;40326;51.220;7.250;2023-02-01T08:39:38;24.08;;;6.82;;
54416;SDS011;40326;51.220;7.250;2023-02-01T08:42:03;22.30;;;5.50;;
54416;SDS011;40326;51.220;7.250;2023-02-01T08:44:46;18.15;;;6.20;;
54416;SDS011;40326;51.220;7.250;2023-02-01T08:47:12;20.02;;;5.55;;
54416;SDS011;40326;51.220;7.250;2023-02-01T08:49:37;22.40;;;6.25;;
54416;SDS011;40326;51.220;7.250;2023-02-01T08:52:02;21.35;;;6.05;;
54416;SDS011;40326;51.220;7.250;2023-02-01T08:54:27;24.50;;;6.28;;
54416;SDS011;40326;51.220;7.250;2023-02-01T08:56:53;15.77;;;5.47;;
54416;SDS011;40326;51.220;7.250;2023-02-01T08:59:19;17.52;;;6.32;;
54416;SDS011;40326;51.220;7.250;2023-02-01T09:01:44;26.23;;;6.78;;
54416;SDS011;40326;51.220;7.250;2023-02-01T09:04:10;20.42;;;6.35;;
54416;SDS011;40326;51.220;7.250;2023-02-01T09:06:35;18.08;;;5.32;;
54416;SDS011;40326;51.220;7.250;2023-02-01T09:09:00;17.90;;;6.35;;
54416;SDS011;40326;51.220;7.250;2023-02-01T09:11:25;21.10;;;6.18;;
54416;SDS011;40326;51.220;7.250;2023-02-01T09:13:51;19.08;;;6.68;;
54416;SDS011;40326;51.220;7.250;2023-02-01T09:16:16;18.50;;;5.75;;
54416;SDS011;40326;51.220;7.250;2023-02-01T09:18:41;19.50;;;5.95;;
54416;SDS011;40326;51.220;7.250;2023-02-01T09:21:07;22.02;;;6.72;;
54416;SDS011;40326;51.220;7.250;2023-02-01T09:23:32;20.80;;;7.25;;
54416;SDS011;40326;51.220;7.250;2023-02-01T09:26:01;21.77;;;7.03;;
54416;SDS011;40326;51.220;7.250;2023-02-01T09:28:27;17.88;;;6.43;;
54416;SDS011;40326;51.220;7.250;2023-02-01T09:30:58;22.95;;;5.80;;
54416;SDS011;40326;51.220;7.250;2023-02-01T09:33:25;16.73;;;6.22;;
54416;SDS011;40326;51.220;7.250;2023-02-01T09:35:55;26.35;;;6.63;;
54416;SDS011;40326;51.220;7.250;2023-02-01T09:38:20;17.73;;;7.97;;
54416;SDS011;40326;51.220;7.250;2023-02-01T09:40:46;20.48;;;6.90;;
54416;SDS011;40326;51.220;7.250;2023-02-01T09:43:16;15.80;;;5.53;;
54416;SDS011;40326;51.220;7.250;2023-02-01T09:48:11;13.63;;;6.43;;
54416;SDS011;40326;51.220;7.250;2023-02-01T09:50:40;17.75;;;7.13;;
54416;SDS011;40326;51.220;7.250;2023-02-01T09:53:10;20.80;;;7.20;;
54416;SDS011;40326;51.220;7.250;2023-02-01T09:55:40;27.17;;;17.73;;
54416;SDS011;40326;51.220;7.250;2023-02-01T10:00:35;23.83;;;7.50;;
54416;SDS011;40326;51.220;7.250;2023-02-01T10:03:01;23.08;;;7.15;;
54416;SDS011;40326;51.220;7.250;2023-02-01T10:05:33;19.40;;;7.88;;
54416;SDS011;40326;51.220;7.250;2023-02-01T10:08:14;22.33;;;7.47;;
54416;SDS011;40326;51.220;7.250;2023-02-01T10:10:49;18.67;;;6.38;;
54416;SDS011;40326;51.220;7.250;2023-02-01T10:13:27;21.20;;;5.88;;
54416;SDS011;40326;51.220;7.250;2023-02-01T10:16:00;18.55;;;5.90;;
54416;SDS011;40326;51.220;7.250;2023-02-01T10:28:41;19.67;;;6.88;;
54416;SDS011;40326;51.220;7.250;2023-02-01T10:31:09;15.90;;;5.30;;
54416;SDS011;40326;51.220;7.250;2023-02-01T10:33:36;21.02;;;6.50;;
54416;SDS011;40326;51.220;7.250;2023-02-01T10:36:04;22.58;;;5.95;;
54416;SDS011;40326;51.220;7.250;2023-02-01T10:38:33;16.17;;;6.22;;
54416;SDS011;40326;51.220;7.250;2023-02-01T10:41:02;39.97;;;18.48;;
54416;SDS011;40326;51.220;7.250;2023-02-01T10:43:28;20.17;;;6.03;;
54416;SDS011;40326;51.220;7.250;2023-02-01T10:45:53;16.75;;;6.45;;
54416;SDS011;40326;51.220;7.250;2023-02-01T10:48:19;21.27;;;6.78;;
54416;SDS011;40326;51.220;7.250;2023-02-01T10:50:54;16.45;;;6.95;;
54416;SDS011;40326;51.220;7.250;2023-02-01T10:55:47;18.53;;;6.37;;
54416;SDS011;40326;51.220;7.250;2023-02-01T11:00:43;19.75;;;5.93;;
54416;SDS011;40326;51.220;7.250;2023-02-01T11:03:30;15.70;;;6.05;;
54416;SDS011;40326;51.220;7.250;2023-02-01T11:05:56;21.35;;;6.60;;
54416;SDS011;40326;51.220;7.250;2023-02-01T11:08:22;20.80;;;6.60;;
54416;SDS011;40326;51.220;7.250;2023-02-01T11:10:47;18.95;;;6.60;;
54416;SDS011;40326;51.220;7.250;2023-02-01T11:13:21;15.88;;;5.85;;
54416;SDS011;40326;51.220;7.250;2023-02-01T11:15:54;16.77;;;5.38;;
54416;SDS011;40326;51.220;7.250;2023-02-01T11:18:20;15.98;;;6.15;;
54416;SDS011;40326;51.220;7.250;2023-02-01T11:20:49;18.90;;;6.40;;
54416;SDS011;40326;51.220;7.250;2023-02-01T11:23:17;24.98;;;7.60;;
54416;SDS011;40326;51.220;7.250;2023-02-01T11:25:48;19.00;;;6.70;;
54416;SDS011;40326;51.220;7.250;2023-02-01T11:28:14;23.38;;;6.35;;
54416;SDS011;40326;51.220;7.250;2023-02-01T11:30:40;21.23;;;7.38;;
54416;SDS011;40326;51.220;7.250;2023-02-01T11:33:06;19.02;;;6.70;;
54416;SDS011;40326;51.220;7.250;2023-02-01T11:35:35;19.48;;;5.68;;
54416;SDS011;40326;51.220;7.250;2023-02-01T11:38:09;24.77;;;6.85;;
54416;SDS011;40326;51.220;7.250;2023-02-01T11:40:36;15.82;;;5.43;;
54416;SDS011;40326;51.220;7.250;2023-02-01T11:43:24;19.85;;;5.65;;
54416;SDS011;40326;51.220;7.250;2023-02-01T11:45:57;20.23;;;6.53;;
54416;SDS011;40326;51.220;7.250;2023-02-01T11:48:23;21.63;;;7.05;;
54416;SDS011;40326;51.220;7.250;2023-02-01T12:01:07;17.60;;;5.90;;
54416;SDS011;40326;51.220;7.250;2023-02-01T12:18:54;18.97;;;5.80;;
54416;SDS011;40326;51.220;7.250;2023-02-01T12:21:26;16.63;;;5.35;;
54416;SDS011;40326;51.220;7.250;2023-02-01T12:34:38;15.45;;;5.15;;
54416;SDS011;40326;51.220;7.250;2023-02-01T12:44:27;16.53;;;5.67;;
54416;SDS011;40326;51.220;7.250;2023-02-01T12:46:57;17.52;;;4.60;;
54416;SDS011;40326;51.220;7.250;2023-02-01T12:51:54;22.92;;;6.18;;
54416;SDS011;40326;51.220;7.250;2023-02-01T12:54:21;16.13;;;6.03;;
54416;SDS011;40326;51.220;7.250;2023-02-01T12:57:10;19.95;;;6.85;;
54416;SDS011;40326;51.220;7.250;2023-02-01T12:59:41;13.95;;;5.18;;
54416;SDS011;40326;51.220;7.250;2023-02-01T13:04:34;15.75;;;5.95;;
54416;SDS011;40326;51.220;7.250;2023-02-01T13:07:04;18.73;;;6.10;;
54416;SDS011;40326;51.220;7.250;2023-02-01T13:09:34;17.42;;;5.45;;
54416;SDS011;40326;51.220;7.250;2023-02-01T13:12:04;15.70;;;5.65;;
54416;SDS011;40326;51.220;7.250;2023-02-01T13:14:37;14.00;;;5.30;;
54416;SDS011;40326;51.220;7.250;2023-02-01T13:17:12;16.48;;;5.13;;
54416;SDS011;40326;51.220;7.250;2023-02-01T13:19:42;14.43;;;4.90;;
54416;SDS011;40326;51.220;7.250;2023-02-01T13:22:16;21.50;;;5.03;;
54416;SDS011;40326;51.220;7.250;2023-02-01T13:27:10;17.77;;;5.07;;
54416;SDS011;40326;51.220;7.250;2023-02-01T13:29:36;15.15;;;5.40;;
54416;SDS011;40326;51.220;7.250;2023-02-01T13:39:36;13.70;;;5.30;;
54416;SDS011;40326;51.220;7.250;2023-02-01T13:42:12;20.33;;;5.13;;
54416;SDS011;40326;51.220;7.250;2023-02-01T13:44:48;17.13;;;5.60;;
54416;SDS011;40326;51.220;7.250;2023-02-01T13:49:49;14.27;;;5.18;;
54416;SDS011;40326;51.220;7.250;2023-02-01T13:52:24;21.50;;;5.45;;
54416;SDS011;40326;51.220;7.250;2023-02-01T13:55:00;17.92;;;5.35;;
54416;SDS011;40326;51.220;7.250;2023-02-01T13:57:36;18.17;;;6.60;;
54416;SDS011;40326;51.220;7.250;2023-02-01T14:00:06;21.55;;;5.47;;
54416;SDS011;40326;51.220;7.250;2023-02-01T14:02:36;22.25;;;5.45;;
54416;SDS011;40326;51.220;7.250;2023-02-01T14:05:01;15.95;;;5.18;;
54416;SDS011;40326;51.220;7.250;2023-02-01T14:07:27;15.00;;;5.05;;
54416;SDS011;40326;51.220;7.250;2023-02-01T14:09:52;24.25;;;6.28;;
54416;SDS011;40326;51.220;7.250;2023-02-01T14:12:41;19.15;;;4.88;;
54416;SDS011;40326;51.220;7.250;2023-02-01T14:18:01;19.17;;;6.05;;
54416;SDS011;40326;51.220;7.250;2023-02-01T14:20:45;22.25;;;5.10;;
54416;SDS011;40326;51.220;7.250;2023-02-01T14:23:15;24.10;;;5.43;;
54416;SDS011;40326;51.220;7.250;2023-02-01T14:25:40;15.65;;;5.20;;
54416;SDS011;40326;51.220;7.250;2023-02-01T14:28:10;16.70;;;5.78;;
54416;SDS011;40326;51.220;7.250;2023-02-01T14:30:36;19.88;;;6.63;;
54416;SDS011;40326;51.220;7.250;2023-02-01T14:33:10;19.45;;;5.80;;
54416;SDS011;40326;51.220;7.250;2023-02-01T14:35:36;18.10;;;5.43;;
54416;SDS011;40326;51.220;7.250;2023-02-01T14:38:01;14.38;;;4.82;;
54416;SDS011;40326;51.220;7.250;2023-02-01T14:40:29;19.55;;;8.23;;
54416;SDS011;40326;51.220;7.250;2023-02-01T14:42:54;17.48;;;7.20;;
54416;SDS011;40326;51.220;7.250;2023-02-01T14:55:43;18.55;;;6.80;;
54416;SDS011;40326;51.220;7.250;2023-02-01T15:00:54;22.08;;;5.70;;
54416;SDS011;40326;51.220;7.250;2023-02-01T15:05:54;11.98;;;4.80;;
54416;SDS011;40326;51.220;7.250;2023-02-01T15:08:21;15.07;;;4.20;;
54416;SDS011;40326;51.220;7.250;2023-02-01T15:10:49;15.40;;;5.28;;
54416;SDS011;40326;51.220;7.250;2023-02-01T15:13:19;16.00;;;4.72;;
54416;SDS011;40326;51.220;7.250;2023-02-01T15:15:45;17.60;;;4.93;;
54416;SDS011;40326;51.220;7.250;2023-02-01T15:18:14;11.05;;;3.47;;
54416;SDS011;40326;51.220;7.250;2023-02-01T15:20:40;13.23;;;5.30;;
54416;SDS011;40326;51.220;7.250;2023-02-01T15:23:14;11.65;;;3.65;;
54416;SDS011;40326;51.220;7.250;2023-02-01T15:25:40;19.42;;;4.97;;
54416;SDS011;40326;51.220;7.250;2023-02-01T15:28:08;17.67;;;5.07;;
54416;SDS011;40326;51.220;7.250;2023-02-01T15:30:36;15.52;;;4.43;;
54416;SDS011;40326;51.220;7.250;2023-02-01T15:33:14;17.05;;;4.55;;
54416;SDS011;40326;51.220;7.250;2023-02-01T15:35:44;15.48;;;4.03;;
54416;SDS011;40326;51.220;7.250;2023-02-01T15:43:19;19.80;;;4.00;;
54416;SDS011;40326;51.220;7.250;2023-02-01T15:45:44;14.65;;;4.20;;
54416;SDS011;40326;51.220;7.250;2023-02-01T15:48:14;11.25;;;3.55;;
54416;SDS011;40326;51.220;7.250;2023-02-01T15:50:44;15.70;;;5.15;;
54416;SDS011;40326;51.220;7.250;2023-02-01T15:53:12;13.82;;;3.67;;
54416;SDS011;40326;51.220;7.250;2023-02-01T15:55:40;14.65;;;4.57;;
54416;SDS011;40326;51.220;7.250;2023-02-01T15:58:07;23.45;;;4.53;;
54416;SDS011;40326;51.220;7.250;2023-02-01T16:00:39;14.88;;;4.63;;
54416;SDS011;40326;51.220;7.250;2023-02-01T16:03:20;17.05;;;4.53;;
54416;SDS011;40326;51.220;7.250;2023-02-01T16:05:54;13.85;;;4.80;;
54416;SDS011;40326;51.220;7.250;2023-02-01T16:08:23;16.95;;;4.15;;
54416;SDS011;40326;51.220;7.250;2023-02-01T16:10:49;15.07;;;4.57;;
54416;SDS011;40326;51.220;7.250;2023-02-01T16:13:15;12.95;;;4.15;;
54416;SDS011;40326;51.220;7.250;2023-02-01T16:15:41;15.73;;;3.95;;
54416;SDS011;40326;51.220;7.250;2023-02-01T16:18:06;18.50;;;4.22;;
54416;SDS011;40326;51.220;7.250;2023-02-01T16:20:33;15.82;;;3.75;;
54416;SDS011;40326;51.220;7.250;2023-02-01T16:23:00;14.43;;;4.05;;
54416;SDS011;40326;51.220;7.250;2023-02-01T16:25:25;13.85;;;3.88;;
54416;SDS011;40326;51.220;7.250;2023-02-01T16:27:50;10.82;;;3.65;;
54416;SDS011;40326;51.220;7.250;2023-02-01T16:30:16;12.73;;;3.55;;
54416;SDS011;40326;51.220;7.250;2023-02-01T16:32:43;12.30;;;4.13;;
54416;SDS011;40326;51.220;7.250;2023-02-01T16:35:22;13.75;;;3.85;;
54416;SDS011;40326;51.220;7.250;2023-02-01T16:37:48;16.63;;;5.20;;
54416;SDS011;40326;51.220;7.250;2023-02-01T16:40:16;16.02;;;4.93;;
54416;SDS011;40326;51.220;7.250;2023-02-01T16:42:41;13.60;;;4.00;;
54416;SDS011;40326;51.220;7.250;2023-02-01T16:45:07;14.30;;;4.15;;
54416;SDS011;40326;51.220;7.250;2023-02-01T16:47:33;15.50;;;5.05;;
54416;SDS011;40326;51.220;7.250;2023-02-01T16:50:01;16.08;;;4.68;;
54416;SDS011;40326;51.220;7.250;2023-02-01T16:52:26;15.95;;;6.88;;
54416;SDS011;40326;51.220;7.250;2023-02-01T16:54:51;15.57;;;6.78;;
54416;SDS011;40326;51.220;7.250;2023-02-01T16:57:18;17.58;;;8.35;;
54416;SDS011;40326;51.220;7.250;2023-02-01T16:59:44;16.95;;;5.72;;
54416;SDS011;40326;51.220;7.250;2023-02-01T17:02:11;24.85;;;6.63;;
54416;SDS011;40326;51.220;7.250;2023-02-01T17:04:36;16.65;;;5.13;;
54416;SDS011;40326;51.220;7.250;2023-02-01T17:07:02;20.90;;;7.15;;
54416;SDS011;40326;51.220;7.250;2023-02-01T17:09:33;17.27;;;6.00;;
54416;SDS011;40326;51.220;7.250;2023-02-01T17:11:59;21.67;;;6.25;;
54416;SDS011;40326;51.220;7.250;2023-02-01T17:14:24;17.15;;;7.00;;
54416;SDS011;40326;51.220;7.250;2023-02-01T17:16:50;15.70;;;5.60;;